sensor_id;sensor_type;location;lat;lon;timestamp;pressure;altitude;pressure_sealevel;temperature;humidity
9853;BME280;4965;43.238;27.864;2022-09-30T00:01:52;99776.34;;;18.20;100.00
9853;BME280;4965;43.238;27.864;2022-09-30T00:04:21;99782.38;;;18.22;100.00
9853;BME280;4965;43.238;27.864;2022-09-30T00:06:50;99773.88;;;18.18;100.00
9853;BME280;4965;43.238;27.864;2022-09-30T00:09:19;99775.47;;;18.13;100.00
9853;BME280;4965;43.238;27.864;2022-09-30T00:11:46;99771.72;;;18.07;100.00
9853;BME280;4965;43.238;27.864;2022-09-30T00:14:15;99791.72;;;17.96;100.00
9853;BME280;4965;43.238;27.864;2022-09-30T00:16:42;99785.88;;;18.07;100.00
9853;BME280;4965;43.238;27.864;2022-09-30T00:19:10;99794.19;;;18.13;100.00
9853;BME280;4965;43.238;27.864;2022-09-30T00:21:37;99793.44;;;18.04;100.00
9853;BME280;4965;43.238;27.864;2022-09-30T00:24:06;99791.88;;;18.09;100.00
9853;BME280;4965;43.238;27.864;2022-09-30T00:26:35;99795.22;;;17.97;100.00
9853;BME280;4965;43.238;27.864;2022-09-30T00:29:02;99780.59;;;17.64;100.00
9853;BME280;4965;43.238;27.864;2022-09-30T00:31:31;99783.25;;;17.78;100.00
9853;BME280;4965;43.238;27.864;2022-09-30T00:33:58;99784.09;;;17.79;100.00
9853;BME280;4965;43.238;27.864;2022-09-30T00:36:38;99782.63;;;17.76;100.00
9853;BME280;4965;43.238;27.864;2022-09-30T00:39:08;99789.91;;;17.82;100.00
9853;BME280;4965;43.238;27.864;2022-09-30T00:41:38;99795.16;;;17.76;100.00
9853;BME280;4965;43.238;27.864;2022-09-30T00:44:43;99793.03;;;17.56;100.00
9853;BME280;4965;43.238;27.864;2022-09-30T00:50:02;99780.59;;;17.64;100.00
9853;BME280;4965;43.238;27.864;2022-09-30T00:52:31;99789.47;;;17.64;100.00
9853;BME280;4965;43.238;27.864;2022-09-30T00:55:01;99773.28;;;17.43;100.00
9853;BME280;4965;43.238;27.864;2022-09-30T00:57:31;99784.00;;;17.57;100.00
9853;BME280;4965;43.238;27.864;2022-09-30T00:59:59;99788.78;;;17.62;100.00
9853;BME280;4965;43.238;27.864;2022-09-30T01:02:27;99795.81;;;17.63;100.00
9853;BME280;4965;43.238;27.864;2022-09-30T01:04:56;99799.38;;;17.55;100.00
9853;BME280;4965;43.238;27.864;2022-09-30T01:07:23;99782.59;;;17.47;100.00
9853;BME280;4965;43.238;27.864;2022-09-30T01:09:51;99783.84;;;17.59;100.00
9853;BME280;4965;43.238;27.864;2022-09-30T01:12:21;99778.91;;;17.48;100.00
9853;BME280;4965;43.238;27.864;2022-09-30T01:14:51;99779.50;;;17.58;100.00
9853;BME280;4965;43.238;27.864;2022-09-30T01:17:28;99778.94;;;17.63;100.00
9853;BME280;4965;43.238;27.864;2022-09-30T01:23:01;99779.00;;;17.54;100.00
9853;BME280;4965;43.238;27.864;2022-09-30T01:26:05;99778.91;;;17.48;100.00
9853;BME280;4965;43.238;27.864;2022-09-30T01:31:48;99779.75;;;17.48;100.00
9853;BME280;4965;43.238;27.864;2022-09-30T01:34:29;99791.34;;;17.55;100.00
9853;BME280;4965;43.238;27.864;2022-09-30T01:37:07;99795.88;;;17.55;100.00
9853;BME280;4965;43.238;27.864;2022-09-30T01:39:45;99738.34;;;17.15;100.00
9853;BME280;4965;43.238;27.864;2022-09-30T01:42:21;99801.59;;;17.52;100.00
9853;BME280;4965;43.238;27.864;2022-09-30T01:44:55;99790.91;;;17.52;100.00
9853;BME280;4965;43.238;27.864;2022-09-30T01:47:32;99795.31;;;17.45;100.00
9853;BME280;4965;43.238;27.864;2022-09-30T01:50:04;99818.91;;;17.56;100.00
9853;BME280;4965;43.238;27.864;2022-09-30T01:52:38;99829.78;;;17.54;100.00
9853;BME280;4965;43.238;27.864;2022-09-30T01:55:21;99827.22;;;17.61;100.00
9853;BME280;4965;43.238;27.864;2022-09-30T01:57:56;99829.22;;;17.44;100.00
9853;BME280;4965;43.238;27.864;2022-09-30T02:00:27;99788.78;;;16.95;100.00
9853;BME280;4965;43.238;27.864;2022-09-30T02:02:58;99824.50;;;17.32;100.00
9853;BME280;4965;43.238;27.864;2022-09-30T02:05:31;99838.84;;;17.31;100.00
9853;BME280;4965;43.238;27.864;2022-09-30T02:08:03;99827.84;;;17.34;100.00
9853;BME280;4965;43.238;27.864;2022-09-30T02:10:37;99823.03;;;17.29;100.00
9853;BME280;4965;43.238;27.864;2022-09-30T02:13:13;99826.56;;;17.07;100.00
9853;BME280;4965;43.238;27.864;2022-09-30T02:15:45;99806.69;;;17.09;100.00
9853;BME280;4965;43.238;27.864;2022-09-30T02:18:18;99836.84;;;17.33;100.00
9853;BME280;4965;43.238;27.864;2022-09-30T02:20:50;99847.63;;;17.39;100.00
9853;BME280;4965;43.238;27.864;2022-09-30T02:23:22;99848.47;;;17.40;100.00
9853;BME280;4965;43.238;27.864;2022-09-30T02:25:57;99835.78;;;17.19;100.00
9853;BME280;4965;43.238;27.864;2022-09-30T02:28:27;99865.56;;;17.31;100.00
9853;BME280;4965;43.238;27.864;2022-09-30T02:30:57;99866.94;;;17.27;100.00
9853;BME280;4965;43.238;27.864;2022-09-30T02:33:31;99868.31;;;17.23;100.00
9853;BME280;4965;43.238;27.864;2022-09-30T02:36:03;99860.50;;;17.21;100.00
9853;BME280;4965;43.238;27.864;2022-09-30T02:38:35;99862.31;;;17.06;100.00
9853;BME280;4965;43.238;27.864;2022-09-30T02:41:08;99873.16;;;17.04;100.00
9853;BME280;4965;43.238;27.864;2022-09-30T02:43:37;99865.19;;;16.96;100.00
9853;BME280;4965;43.238;27.864;2022-09-30T02:46:10;99857.66;;;16.77;100.00
9853;BME280;4965;43.238;27.864;2022-09-30T02:48:47;99852.44;;;16.84;100.00
9853;BME280;4965;43.238;27.864;2022-09-30T02:51:18;99858.56;;;16.92;100.00
9853;BME280;4965;43.238;27.864;2022-09-30T02:53:54;99856.72;;;16.93;100.00
9853;BME280;4965;43.238;27.864;2022-09-30T02:56:32;99868.41;;;16.92;100.00
9853;BME280;4965;43.238;27.864;2022-09-30T02:59:03;99879.91;;;16.70;100.00
9853;BME280;4965;43.238;27.864;2022-09-30T03:01:30;99875.22;;;16.72;100.00
9853;BME280;4965;43.238;27.864;2022-09-30T03:04:02;99864.56;;;16.72;100.00
9853;BME280;4965;43.238;27.864;2022-09-30T03:06:31;99879.84;;;16.78;100.00
9853;BME280;4965;43.238;27.864;2022-09-30T03:08:58;99880.84;;;16.77;100.00
9853;BME280;4965;43.238;27.864;2022-09-30T03:11:27;99896.19;;;16.83;100.00
9853;BME280;4965;43.238;27.864;2022-09-30T03:14:13;99894.28;;;16.91;100.00
9853;BME280;4965;43.238;27.864;2022-09-30T03:16:56;99906.75;;;16.99;100.00
9853;BME280;4965;43.238;27.864;2022-09-30T03:22:41;99900.78;;;17.11;100.00
9853;BME280;4965;43.238;27.864;2022-09-30T03:25:24;99914.84;;;17.28;100.00
9853;BME280;4965;43.238;27.864;2022-09-30T03:28:05;99916.47;;;17.37;100.00
9853;BME280;4965;43.238;27.864;2022-09-30T03:30:43;99907.16;;;17.33;100.00
9853;BME280;4965;43.238;27.864;2022-09-30T03:33:17;99914.97;;;17.35;100.00
9853;BME280;4965;43.238;27.864;2022-09-30T03:35:55;99918.66;;;17.34;100.00
9853;BME280;4965;43.238;27.864;2022-09-30T03:38:33;99915.19;;;17.48;100.00
9853;BME280;4965;43.238;27.864;2022-09-30T03:41:06;99914.91;;;17.43;100.00
9853;BME280;4965;43.238;27.864;2022-09-30T03:43:35;99917.50;;;17.51;100.00
9853;BME280;4965;43.238;27.864;2022-09-30T03:46:08;99919.81;;;17.54;100.00
9853;BME280;4965;43.238;27.864;2022-09-30T03:48:39;99908.44;;;17.37;100.00
9853;BME280;4965;43.238;27.864;2022-09-30T03:51:07;99929.38;;;17.48;100.00
9853;BME280;4965;43.238;27.864;2022-09-30T03:53:39;99934.53;;;17.50;100.00
9853;BME280;4965;43.238;27.864;2022-09-30T03:56:06;99933.91;;;17.48;100.00
9853;BME280;4965;43.238;27.864;2022-09-30T03:58:33;99934.41;;;17.29;100.00
9853;BME280;4965;43.238;27.864;2022-09-30T04:01:00;99935.81;;;17.17;100.00
9853;BME280;4965;43.238;27.864;2022-09-30T04:03:27;99926.25;;;16.99;100.00
9853;BME280;4965;43.238;27.864;2022-09-30T04:05:54;99913.63;;;16.93;100.00
9853;BME280;4965;43.238;27.864;2022-09-30T04:08:21;99922.69;;;16.84;100.00
9853;BME280;4965;43.238;27.864;2022-09-30T04:10:49;99905.34;;;16.80;100.00
9853;BME280;4965;43.238;27.864;2022-09-30T04:13:16;99904.34;;;16.81;100.00
9853;BME280;4965;43.238;27.864;2022-09-30T04:15:43;99909.13;;;16.63;100.00
9853;BME280;4965;43.238;27.864;2022-09-30T04:18:10;99903.41;;;16.74;100.00
9853;BME280;4965;43.238;27.864;2022-09-30T04:20:37;99908.69;;;16.82;100.00
9853;BME280;4965;43.238;27.864;2022-09-30T04:23:04;99912.56;;;17.02;100.00
9853;BME280;4965;43.238;27.864;2022-09-30T04:25:31;99922.34;;;17.33;100.00
9853;BME280;4965;43.238;27.864;2022-09-30T04:27:59;99942.66;;;17.79;100.00
9853;BME280;4965;43.238;27.864;2022-09-30T04:30:26;99946.28;;;18.16;100.00
9853;BME280;4965;43.238;27.864;2022-09-30T04:32:53;99951.44;;;18.46;100.00
9853;BME280;4965;43.238;27.864;2022-09-30T04:35:20;99961.88;;;18.71;100.00
9853;BME280;4965;43.238;27.864;2022-09-30T04:37:47;99948.31;;;18.58;100.00
9853;BME280;4965;43.238;27.864;2022-09-30T04:40:15;99972.97;;;19.03;100.00
9853;BME280;4965;43.238;27.864;2022-09-30T04:42:42;99970.88;;;19.20;100.00
9853;BME280;4965;43.238;27.864;2022-09-30T04:45:13;99987.97;;;19.19;100.00
9853;BME280;4965;43.238;27.864;2022-09-30T04:47:42;99985.31;;;19.40;100.00
9853;BME280;4965;43.238;27.864;2022-09-30T04:50:10;99992.63;;;19.95;100.00
9853;BME280;4965;43.238;27.864;2022-09-30T04:52:41;99989.84;;;20.10;100.00
9853;BME280;4965;43.238;27.864;2022-09-30T04:55:08;99985.94;;;20.40;100.00
9853;BME280;4965;43.238;27.864;2022-09-30T04:57:35;99986.72;;;20.75;100.00
9853;BME280;4965;43.238;27.864;2022-09-30T05:00:03;99970.94;;;20.59;100.00
9853;BME280;4965;43.238;27.864;2022-09-30T05:02:34;99984.22;;;20.74;100.00
9853;BME280;4965;43.238;27.864;2022-09-30T05:05:02;99994.19;;;20.80;100.00
9853;BME280;4965;43.238;27.864;2022-09-30T05:07:29;99989.00;;;20.78;100.00
9853;BME280;4965;43.238;27.864;2022-09-30T05:09:56;99984.09;;;20.88;100.00
9853;BME280;4965;43.238;27.864;2022-09-30T05:12:23;99982.53;;;21.14;100.00
9853;BME280;4965;43.238;27.864;2022-09-30T05:14:50;99990.63;;;21.20;100.00
9853;BME280;4965;43.238;27.864;2022-09-30T05:17:17;99980.91;;;21.19;100.00
9853;BME280;4965;43.238;27.864;2022-09-30T05:19:45;99980.13;;;21.38;100.00
9853;BME280;4965;43.238;27.864;2022-09-30T05:22:13;99979.91;;;21.27;100.00
9853;BME280;4965;43.238;27.864;2022-09-30T05:24:39;99973.50;;;21.41;100.00
9853;BME280;4965;43.238;27.864;2022-09-30T05:27:06;99985.31;;;21.60;100.00
9853;BME280;4965;43.238;27.864;2022-09-30T05:29:33;99982.81;;;21.71;100.00
9853;BME280;4965;43.238;27.864;2022-09-30T05:32:00;99983.06;;;21.96;100.00
9853;BME280;4965;43.238;27.864;2022-09-30T05:34:27;99979.53;;;22.09;100.00
9853;BME280;4965;43.238;27.864;2022-09-30T05:36:56;99978.88;;;22.40;100.00
9853;BME280;4965;43.238;27.864;2022-09-30T05:39:23;99979.66;;;22.47;100.00
9853;BME280;4965;43.238;27.864;2022-09-30T05:41:50;99981.06;;;22.62;100.00
9853;BME280;4965;43.238;27.864;2022-09-30T05:44:17;99968.81;;;22.73;100.00
9853;BME280;4965;43.238;27.864;2022-09-30T05:46:45;99971.38;;;22.99;100.00
9853;BME280;4965;43.238;27.864;2022-09-30T05:49:12;99968.88;;;23.04;100.00
9853;BME280;4965;43.238;27.864;2022-09-30T05:51:39;99973.50;;;23.29;100.00
9853;BME280;4965;43.238;27.864;2022-09-30T05:54:08;99981.63;;;23.22;100.00
9853;BME280;4965;43.238;27.864;2022-09-30T05:56:35;99991.44;;;23.10;100.00
9853;BME280;4965;43.238;27.864;2022-09-30T05:59:03;99999.19;;;23.00;100.00
9853;BME280;4965;43.238;27.864;2022-09-30T06:01:30;99998.97;;;22.95;100.00
9853;BME280;4965;43.238;27.864;2022-09-30T06:03:57;100000.94;;;22.81;100.00
9853;BME280;4965;43.238;27.864;2022-09-30T06:06:24;100003.00;;;22.79;100.00
9853;BME280;4965;43.238;27.864;2022-09-30T06:08:51;100007.84;;;22.44;100.00
9853;BME280;4965;43.238;27.864;2022-09-30T06:11:20;100014.69;;;22.40;100.00
9853;BME280;4965;43.238;27.864;2022-09-30T06:13:50;100004.34;;;22.30;100.00
9853;BME280;4965;43.238;27.864;2022-09-30T06:16:17;100004.78;;;22.27;100.00
9853;BME280;4965;43.238;27.864;2022-09-30T06:18:44;100019.03;;;22.41;100.00
9853;BME280;4965;43.238;27.864;2022-09-30T06:21:13;100012.22;;;22.39;100.00
9853;BME280;4965;43.238;27.864;2022-09-30T06:23:41;100021.09;;;22.46;100.00
9853;BME280;4965;43.238;27.864;2022-09-30T06:26:10;100025.44;;;22.53;100.00
9853;BME280;4965;43.238;27.864;2022-09-30T06:28:39;100024.78;;;22.64;100.00
9853;BME280;4965;43.238;27.864;2022-09-30T06:31:06;100025.63;;;22.58;100.00
9853;BME280;4965;43.238;27.864;2022-09-30T06:33:33;100031.19;;;22.76;100.00
9853;BME280;4965;43.238;27.864;2022-09-30T06:36:01;100017.56;;;22.45;100.00
9853;BME280;4965;43.238;27.864;2022-09-30T06:38:29;100044.47;;;22.71;100.00
9853;BME280;4965;43.238;27.864;2022-09-30T06:40:58;100046.56;;;22.69;100.00
9853;BME280;4965;43.238;27.864;2022-09-30T06:43:24;100057.56;;;22.74;100.00
9853;BME280;4965;43.238;27.864;2022-09-30T06:45:53;100057.56;;;22.74;100.00
9853;BME280;4965;43.238;27.864;2022-09-30T06:48:20;100066.03;;;22.78;100.00
9853;BME280;4965;43.238;27.864;2022-09-30T06:50:47;100073.06;;;22.86;100.00
9853;BME280;4965;43.238;27.864;2022-09-30T06:53:17;100078.84;;;22.89;100.00
9853;BME280;4965;43.238;27.864;2022-09-30T06:55:44;100080.41;;;23.10;100.00
9853;BME280;4965;43.238;27.864;2022-09-30T06:58:13;100080.41;;;23.16;100.00
9853;BME280;4965;43.238;27.864;2022-09-30T07:00:41;100079.44;;;23.49;100.00
9853;BME280;4965;43.238;27.864;2022-09-30T07:03:22;100081.63;;;23.65;100.00
9853;BME280;4965;43.238;27.864;2022-09-30T07:05:56;100084.94;;;23.98;100.00
9853;BME280;4965;43.238;27.864;2022-09-30T07:08:25;100072.59;;;24.09;100.00
9853;BME280;4965;43.238;27.864;2022-09-30T07:10:56;100082.91;;;24.25;100.00
9853;BME280;4965;43.238;27.864;2022-09-30T07:13:23;100083.97;;;24.17;100.00
9853;BME280;4965;43.238;27.864;2022-09-30T07:15:50;100088.06;;;24.51;100.00
9853;BME280;4965;43.238;27.864;2022-09-30T07:18:23;100081.38;;;24.54;100.00
9853;BME280;4965;43.238;27.864;2022-09-30T07:20:54;100072.16;;;24.80;100.00
9853;BME280;4965;43.238;27.864;2022-09-30T07:23:22;100094.66;;;25.17;100.00
9853;BME280;4965;43.238;27.864;2022-09-30T07:25:55;100094.19;;;25.20;100.00
9853;BME280;4965;43.238;27.864;2022-09-30T07:28:23;100078.88;;;25.13;100.00
9853;BME280;4965;43.238;27.864;2022-09-30T07:30:53;100085.72;;;25.46;100.00
9853;BME280;4965;43.238;27.864;2022-09-30T07:33:25;100056.78;;;25.17;100.00
9853;BME280;4965;43.238;27.864;2022-09-30T07:35:54;100084.22;;;25.80;100.00
9853;BME280;4965;43.238;27.864;2022-09-30T07:38:24;100085.91;;;25.14;100.00
9853;BME280;4965;43.238;27.864;2022-09-30T07:40:53;100062.72;;;24.89;100.00
9853;BME280;4965;43.238;27.864;2022-09-30T07:43:21;100080.13;;;25.11;100.00
9853;BME280;4965;43.238;27.864;2022-09-30T07:45:47;100076.09;;;25.02;100.00
9853;BME280;4965;43.238;27.864;2022-09-30T07:48:16;100084.34;;;25.25;100.00
9853;BME280;4965;43.238;27.864;2022-09-30T07:51:04;100085.63;;;25.04;100.00
9853;BME280;4965;43.238;27.864;2022-09-30T07:53:34;100086.47;;;25.05;100.00
9853;BME280;4965;43.238;27.864;2022-09-30T07:56:02;100050.22;;;24.70;100.00
9853;BME280;4965;43.238;27.864;2022-09-30T07:58:29;100083.75;;;25.05;100.00
9853;BME280;4965;43.238;27.864;2022-09-30T08:00:56;100081.88;;;25.05;100.00
9853;BME280;4965;43.238;27.864;2022-09-30T08:03:23;100070.91;;;25.48;100.00
9853;BME280;4965;43.238;27.864;2022-09-30T08:05:51;100099.56;;;25.86;100.00
9853;BME280;4965;43.238;27.864;2022-09-30T08:08:19;100040.56;;;24.98;100.00
9853;BME280;4965;43.238;27.864;2022-09-30T08:10:46;100093.22;;;25.62;100.00
9853;BME280;4965;43.238;27.864;2022-09-30T08:13:13;100097.25;;;26.13;100.00
9853;BME280;4965;43.238;27.864;2022-09-30T08:15:41;100089.31;;;25.88;100.00
9853;BME280;4965;43.238;27.864;2022-09-30T08:18:08;100088.00;;;25.31;100.00
9853;BME280;4965;43.238;27.864;2022-09-30T08:20:35;100087.81;;;25.62;100.00
9853;BME280;4965;43.238;27.864;2022-09-30T08:23:02;100093.28;;;25.74;100.00
9853;BME280;4965;43.238;27.864;2022-09-30T08:25:30;100095.44;;;25.83;100.00
9853;BME280;4965;43.238;27.864;2022-09-30T08:27:57;100099.94;;;25.59;100.00
9853;BME280;4965;43.238;27.864;2022-09-30T08:30:24;100083.63;;;25.78;100.00
9853;BME280;4965;43.238;27.864;2022-09-30T08:32:51;100103.97;;;26.10;100.00
9853;BME280;4965;43.238;27.864;2022-09-30T08:35:18;100093.78;;;25.82;100.00
9853;BME280;4965;43.238;27.864;2022-09-30T08:37:45;100102.28;;;25.56;100.00
9853;BME280;4965;43.238;27.864;2022-09-30T08:40:17;100101.81;;;25.59;100.00
9853;BME280;4965;43.238;27.864;2022-09-30T08:45:43;100110.91;;;26.06;100.00
9853;BME280;4965;43.238;27.864;2022-09-30T08:48:30;100115.72;;;25.63;100.00
9853;BME280;4965;43.238;27.864;2022-09-30T08:51:09;100116.56;;;26.04;100.00
9853;BME280;4965;43.238;27.864;2022-09-30T08:53:44;100121.59;;;26.54;100.00
9853;BME280;4965;43.238;27.864;2022-09-30T08:56:18;100122.19;;;26.03;100.00
9853;BME280;4965;43.238;27.864;2022-09-30T08:58:51;100125.72;;;26.22;100.00
9853;BME280;4965;43.238;27.864;2022-09-30T09:01:24;100134.66;;;26.45;100.00
9853;BME280;4965;43.238;27.864;2022-09-30T09:03:56;100119.91;;;26.18;100.00
9853;BME280;4965;43.238;27.864;2022-09-30T09:06:30;100121.91;;;26.23;100.00
9853;BME280;4965;43.238;27.864;2022-09-30T09:09:15;100136.06;;;26.25;100.00
9853;BME280;4965;43.238;27.864;2022-09-30T09:11:56;100139.84;;;26.35;100.00
9853;BME280;4965;43.238;27.864;2022-09-30T09:14:33;100117.59;;;26.57;100.00
9853;BME280;4965;43.238;27.864;2022-09-30T09:17:13;100145.66;;;26.50;100.00
9853;BME280;4965;43.238;27.864;2022-09-30T09:19:48;100146.22;;;26.29;100.00
9853;BME280;4965;43.238;27.864;2022-09-30T09:22:16;100124.34;;;26.13;100.00
9853;BME280;4965;43.238;27.864;2022-09-30T09:24:45;100136.94;;;26.48;100.00
9853;BME280;4965;43.238;27.864;2022-09-30T09:27:18;100130.81;;;26.88;100.00
9853;BME280;4965;43.238;27.864;2022-09-30T09:29:57;100121.84;;;26.52;100.00
9853;BME280;4965;43.238;27.864;2022-09-30T09:32:27;100145.97;;;26.31;100.00
9853;BME280;4965;43.238;27.864;2022-09-30T09:34:58;100147.75;;;26.25;100.00
9853;BME280;4965;43.238;27.864;2022-09-30T09:37:33;100145.34;;;26.17;100.00
9853;BME280;4965;43.238;27.864;2022-09-30T09:40:27;100129.16;;;26.40;100.00
9853;BME280;4965;43.238;27.864;2022-09-30T09:43:08;100123.97;;;26.74;100.00
9853;BME280;4965;43.238;27.864;2022-09-30T09:45:42;100137.66;;;26.67;100.00
9853;BME280;4965;43.238;27.864;2022-09-30T09:48:12;100133.66;;;26.93;100.00
9853;BME280;4965;43.238;27.864;2022-09-30T09:50:49;100128.47;;;26.80;100.00
9853;BME280;4965;43.238;27.864;2022-09-30T09:53:46;100137.97;;;27.17;100.00
9853;BME280;4965;43.238;27.864;2022-09-30T09:56:16;100138.91;;;26.53;100.00
9853;BME280;4965;43.238;27.864;2022-09-30T09:59:06;100136.47;;;26.75;100.00
9853;BME280;4965;43.238;27.864;2022-09-30T10:01:37;100137.88;;;27.00;100.00
9853;BME280;4965;43.238;27.864;2022-09-30T10:04:13;100127.59;;;27.26;100.00
9853;BME280;4965;43.238;27.864;2022-09-30T10:06:45;100123.97;;;26.97;100.00
9853;BME280;4965;43.238;27.864;2022-09-30T10:09:32;100122.00;;;27.32;100.00
9853;BME280;4965;43.238;27.864;2022-09-30T10:12:27;100124.56;;;27.79;100.00
9853;BME280;4965;43.238;27.864;2022-09-30T10:14:58;100129.13;;;28.18;100.00
9853;BME280;4965;43.238;27.864;2022-09-30T10:17:28;100135.72;;;27.26;100.00
9853;BME280;4965;43.238;27.864;2022-09-30T10:20:03;100124.50;;;27.34;100.00
9853;BME280;4965;43.238;27.864;2022-09-30T10:22:34;100125.53;;;27.73;100.00
9853;BME280;4965;43.238;27.864;2022-09-30T10:25:18;100121.47;;;27.59;100.00
9853;BME280;4965;43.238;27.864;2022-09-30T10:27:48;100121.84;;;28.07;97.83
9853;BME280;4965;43.238;27.864;2022-09-30T10:30:40;100115.81;;;28.05;100.00
9853;BME280;4965;43.238;27.864;2022-09-30T10:33:16;100105.59;;;27.96;100.00
9853;BME280;4965;43.238;27.864;2022-09-30T10:36:02;100093.94;;;28.12;100.00
9853;BME280;4965;43.238;27.864;2022-09-30T10:38:30;100045.69;;;27.74;100.00
9853;BME280;4965;43.238;27.864;2022-09-30T10:40:59;100102.91;;;28.12;100.00
9853;BME280;4965;43.238;27.864;2022-09-30T10:43:33;100118.44;;;27.43;100.00
9853;BME280;4965;43.238;27.864;2022-09-30T10:46:02;100108.72;;;27.87;100.00
9853;BME280;4965;43.238;27.864;2022-09-30T10:48:33;100108.16;;;27.57;100.00
9853;BME280;4965;43.238;27.864;2022-09-30T10:51:00;100109.00;;;27.34;100.00
9853;BME280;4965;43.238;27.864;2022-09-30T10:53:31;100109.44;;;27.55;100.00
9853;BME280;4965;43.238;27.864;2022-09-30T10:55:59;100097.63;;;27.61;100.00
9853;BME280;4965;43.238;27.864;2022-09-30T10:58:42;100084.19;;;27.42;100.00
9853;BME280;4965;43.238;27.864;2022-09-30T11:01:19;100079.34;;;27.16;100.00
9853;BME280;4965;43.238;27.864;2022-09-30T11:03:57;100108.88;;;27.53;100.00
9853;BME280;4965;43.238;27.864;2022-09-30T11:06:30;100102.56;;;27.64;100.00
9853;BME280;4965;43.238;27.864;2022-09-30T11:09:02;100102.88;;;26.99;100.00
9853;BME280;4965;43.238;27.864;2022-09-30T11:11:35;100110.13;;;27.22;100.00
9853;BME280;4965;43.238;27.864;2022-09-30T11:14:15;100104.09;;;27.20;100.00
9853;BME280;4965;43.238;27.864;2022-09-30T11:16:50;100104.50;;;27.40;100.00
9853;BME280;4965;43.238;27.864;2022-09-30T11:19:25;100102.66;;;27.69;100.00
9853;BME280;4965;43.238;27.864;2022-09-30T11:21:56;100099.59;;;27.65;100.00
9853;BME280;4965;43.238;27.864;2022-09-30T11:24:30;100100.91;;;27.63;100.00
9853;BME280;4965;43.238;27.864;2022-09-30T11:27:03;100100.84;;;27.46;100.00
9853;BME280;4965;43.238;27.864;2022-09-30T11:29:46;100110.16;;;27.50;100.00
9853;BME280;4965;43.238;27.864;2022-09-30T11:32:30;100116.25;;;27.29;100.00
9853;BME280;4965;43.238;27.864;2022-09-30T11:35:13;100106.50;;;27.56;100.00
9853;BME280;4965;43.238;27.864;2022-09-30T11:37:59;100121.09;;;27.15;100.00
9853;BME280;4965;43.238;27.864;2022-09-30T11:40:30;100106.25;;;27.18;100.00
9853;BME280;4965;43.238;27.864;2022-09-30T11:43:10;100121.69;;;27.17;100.00
9853;BME280;4965;43.238;27.864;2022-09-30T11:45:54;100123.63;;;26.93;100.00
9853;BME280;4965;43.238;27.864;2022-09-30T11:48:36;100130.56;;;27.01;100.00
9853;BME280;4965;43.238;27.864;2022-09-30T11:51:17;100132.94;;;26.63;100.00
9853;BME280;4965;43.238;27.864;2022-09-30T11:53:54;100121.38;;;26.56;100.00
9853;BME280;4965;43.238;27.864;2022-09-30T11:56:42;100129.50;;;26.32;100.00
9853;BME280;4965;43.238;27.864;2022-09-30T11:59:17;100124.94;;;26.15;100.00
9853;BME280;4965;43.238;27.864;2022-09-30T12:01:49;100145.47;;;26.22;100.00
9853;BME280;4965;43.238;27.864;2022-09-30T12:04:19;100140.06;;;26.34;100.00
9853;BME280;4965;43.238;27.864;2022-09-30T12:06:55;100122.75;;;26.35;100.00
9853;BME280;4965;43.238;27.864;2022-09-30T12:09:25;100104.91;;;26.16;100.00
9853;BME280;4965;43.238;27.864;2022-09-30T12:11:57;100125.53;;;26.17;100.00
9853;BME280;4965;43.238;27.864;2022-09-30T12:14:31;100135.50;;;26.34;100.00
9853;BME280;4965;43.238;27.864;2022-09-30T12:17:01;100137.97;;;26.36;100.00
9853;BME280;4965;43.238;27.864;2022-09-30T12:19:35;100143.53;;;26.11;100.00
9853;BME280;4965;43.238;27.864;2022-09-30T12:22:10;100124.19;;;25.96;100.00
9853;BME280;4965;43.238;27.864;2022-09-30T12:24:40;100142.88;;;25.86;100.00
9853;BME280;4965;43.238;27.864;2022-09-30T12:27:14;100128.47;;;25.74;100.00
9853;BME280;4965;43.238;27.864;2022-09-30T12:29:50;100122.66;;;26.00;100.00
9853;BME280;4965;43.238;27.864;2022-09-30T12:33:10;100139.63;;;26.07;100.00
9853;BME280;4965;43.238;27.864;2022-09-30T12:36:03;100127.38;;;25.93;100.00
9853;BME280;4965;43.238;27.864;2022-09-30T12:38:52;100142.91;;;26.27;100.00
9853;BME280;4965;43.238;27.864;2022-09-30T12:41:41;100125.81;;;26.38;100.00
9853;BME280;4965;43.238;27.864;2022-09-30T12:44:55;100129.72;;;26.54;100.00
9853;BME280;4965;43.238;27.864;2022-09-30T12:47:34;100140.72;;;26.59;100.00
9853;BME280;4965;43.238;27.864;2022-09-30T12:50:13;100136.69;;;26.73;100.00
9853;BME280;4965;43.238;27.864;2022-09-30T12:52:41;100143.06;;;26.79;100.00
9853;BME280;4965;43.238;27.864;2022-09-30T12:55:20;100140.94;;;26.81;100.00
9853;BME280;4965;43.238;27.864;2022-09-30T12:57:49;100141.41;;;26.78;100.00
9853;BME280;4965;43.238;27.864;2022-09-30T13:00:19;100135.28;;;26.71;100.00
9853;BME280;4965;43.238;27.864;2022-09-30T13:02:53;100117.13;;;26.48;100.00
9853;BME280;4965;43.238;27.864;2022-09-30T13:08:45;100145.06;;;26.37;100.00
9853;BME280;4965;43.238;27.864;2022-09-30T13:11:36;100142.09;;;26.38;100.00
9853;BME280;4965;43.238;27.864;2022-09-30T13:14:23;100151.78;;;26.58;100.00
9853;BME280;4965;43.238;27.864;2022-09-30T13:17:02;100139.50;;;26.43;100.00
9853;BME280;4965;43.238;27.864;2022-09-30T13:19:32;100158.38;;;26.50;100.00
9853;BME280;4965;43.238;27.864;2022-09-30T13:22:41;100168.97;;;26.28;100.00
9853;BME280;4965;43.238;27.864;2022-09-30T13:25:12;100144.41;;;25.82;100.00
9853;BME280;4965;43.238;27.864;2022-09-30T13:27:43;100179.59;;;25.82;100.00
9853;BME280;4965;43.238;27.864;2022-09-30T13:30:38;100156.97;;;25.76;100.00
9853;BME280;4965;43.238;27.864;2022-09-30T13:33:27;100157.53;;;25.48;100.00
9853;BME280;4965;43.238;27.864;2022-09-30T13:36:04;100136.88;;;25.36;100.00
9853;BME280;4965;43.238;27.864;2022-09-30T13:38:34;100147.91;;;25.34;100.00
9853;BME280;4965;43.238;27.864;2022-09-30T13:41:06;100159.16;;;25.49;100.00
9853;BME280;4965;43.238;27.864;2022-09-30T13:43:39;100157.53;;;25.48;100.00